^^
Station Historical Data
Daily Summary for January 2, 2018 Units:  English    Metric   Both
« Previous Day
Next Day »
Daily Weekly Monthly Yearly Custom
  High: Low: Average:
Temperature: TemperatureF °F 56.7 °F 71.3 °F
Dew Point: DewpointF °F 10.9 °F 34.5 °F
Humidity: Humidity% 5% 37%
Wind Speed: WindSpeedMPHmph 0.0mph 4.6mph
Wind Gust: WindSpeedGustMPHmph - -
Wind- - SSW
Pressure: PressureIn in 29.76 in -
Precipitation: 0.00 in    
Historical Graphs
 
 
Tabular Data for January 2, 2018
Time Temperature Dew Point Pressure Wind Wind Speed Wind Gust Humidity Rainfall Rate (Hourly) solar Conditions
TemperatureF °F DewpointF °F PressureIn in Calm     Humidity% HourlyPrecipIn in SolarRadiationWatts/m^2 W/m2 Conditions
00:09 66.2 °F 45.9 °F 29.90 in SSW 8.9 mph 14.0 mph 48% 0.00 in 0.0 W/m2
00:14 66.0 °F 45.7 °F 29.89 in SSW 8.9 mph 13.0 mph 48% 0.00 in 0.0 W/m2
00:20 65.8 °F 46.2 °F 29.89 in SSW 11.0 mph 13.0 mph 49% 0.00 in 0.0 W/m2
00:29 65.7 °F 46.0 °F 29.89 in SSW 13.0 mph 13.0 mph 49% 0.00 in 0.0 W/m2
00:34 65.3 °F 46.2 °F 29.89 in SSW 8.9 mph 12.0 mph 50% 0.00 in 0.0 W/m2
00:39 65.1 °F 46.0 °F 29.89 in SW 8.9 mph 10.0 mph 50% 0.00 in 0.0 W/m2
00:44 64.9 °F 45.9 °F 29.89 in SW 8.1 mph 11.0 mph 50% 0.00 in 0.0 W/m2
00:49 64.9 °F 46.4 °F 29.89 in SW 6.9 mph 11.0 mph 51% 0.00 in 0.0 W/m2
00:54 64.8 °F 46.2 °F 29.89 in SW 10.1 mph 10.1 mph 51% 0.00 in 0.0 W/m2
01:00 64.8 °F 46.2 °F 29.89 in SW 8.9 mph 11.0 mph 51% 0.00 in 0.0 W/m2
01:10 64.6 °F 46.6 °F 29.88 in SW 13.0 mph 13.0 mph 52% 0.00 in 0.0 W/m2
01:20 64.2 °F 46.8 °F 29.88 in SW 11.0 mph 13.0 mph 53% 0.00 in 0.0 W/m2
01:25 64.2 °F 46.8 °F 29.87 in SW 11.0 mph 11.0 mph 53% 0.00 in 0.0 W/m2
01:30 64.0 °F 46.6 °F 29.87 in SW 12.1 mph 13.0 mph 53% 0.00 in 0.0 W/m2
01:35 63.9 °F 46.4 °F 29.87 in SW 8.1 mph 15.0 mph 53% 0.00 in 0.0 W/m2
01:40 63.9 °F 46.4 °F 29.87 in SW 8.9 mph 11.0 mph 53% 0.00 in 0.0 W/m2
01:45 63.7 °F 46.8 °F 29.87 in SSW 8.9 mph 11.0 mph 54% 0.00 in 0.0 W/m2
01:55 63.3 °F 46.4 °F 29.87 in SSW 10.1 mph 14.0 mph 54% 0.00 in 0.0 W/m2
02:00 63.3 °F 46.4 °F 29.86 in SSW 8.9 mph 11.0 mph 54% 0.00 in 0.0 W/m2
02:05 63.1 °F 46.2 °F 29.86 in SSW 8.1 mph 11.0 mph 54% 0.00 in 0.0 W/m2
02:15 63.0 °F 46.6 °F 29.87 in SSW 8.9 mph 10.0 mph 55% 0.00 in 0.0 W/m2
02:20 62.8 °F 46.4 °F 29.87 in SW 8.1 mph 9.0 mph 55% 0.00 in 0.0 W/m2
02:25 62.4 °F 46.0 °F 29.87 in SW 4.0 mph 6.0 mph 55% 0.00 in 0.0 W/m2
02:30 62.2 °F 46.4 °F 29.87 in SW 6.9 mph 10.0 mph 56% 0.00 in 0.0 W/m2
02:35 62.2 °F 46.4 °F 29.87 in SW 6.9 mph 7.0 mph 56% 0.00 in 0.0 W/m2
02:45 62.1 °F 46.2 °F 29.86 in SW 4.0 mph 7.0 mph 56% 0.00 in 0.0 W/m2
02:50 61.9 °F 46.0 °F 29.86 in SW 2.9 mph 5.0 mph 56% 0.00 in 0.0 W/m2
02:55 61.5 °F 45.7 °F 29.87 in SW 2.0 mph 3.0 mph 56% 0.00 in 0.0 W/m2
03:00 61.3 °F 45.5 °F 29.87 in Calm   2.0 mph 56% 0.00 in 0.0 W/m2
03:06 61.2 °F 45.9 °F 29.87 in Calm     57% 0.00 in 0.0 W/m2
03:11 61.0 °F 45.7 °F 29.87 in Calm     57% 0.00 in 0.0 W/m2
03:16 61.2 °F 46.2 °F 29.87 in SSW 8.1 mph 9.0 mph 58% 0.00 in 0.0 W/m2
03:26 61.2 °F 45.9 °F 29.86 in SSW 6.0 mph 7.0 mph 57% 0.00 in 0.0 W/m2
03:31 61.0 °F 46.0 °F 29.86 in SSW 4.9 mph 7.0 mph 58% 0.00 in 0.0 W/m2
03:41 60.6 °F 45.7 °F 29.86 in SSW 4.0 mph 7.0 mph 58% 0.00 in 0.0 W/m2
03:47 60.4 °F 45.7 °F 29.86 in SSW 6.9 mph 7.0 mph 58% 0.00 in 0.0 W/m2
03:52 60.3 °F 45.5 °F 29.86 in SSW 4.9 mph 8.0 mph 58% 0.00 in 0.0 W/m2
03:57 60.3 °F 45.5 °F 29.86 in SSW 4.9 mph 6.0 mph 58% 0.00 in 0.0 W/m2
04:02 60.3 °F 45.9 °F 29.86 in SSW 6.0 mph 6.0 mph 59% 0.00 in 0.0 W/m2
04:12 59.7 °F 45.3 °F 29.86 in SSW 4.0 mph 5.0 mph 59% 0.00 in 0.0 W/m2
04:23 59.0 °F 44.8 °F 29.86 in SSW 2.9 mph 3.0 mph 59% 0.00 in 0.0 W/m2
04:29 58.6 °F 45.3 °F 29.86 in SSW 4.0 mph 6.0 mph 61% 0.00 in 0.0 W/m2
04:34 58.6 °F 45.3 °F 29.86 in SSW 2.9 mph 4.0 mph 61% 0.00 in 0.0 W/m2
04:39 58.5 °F 45.1 °F 29.86 in SSW 2.9 mph 5.0 mph 61% 0.00 in 0.0 W/m2
04:44 58.5 °F 45.5 °F 29.86 in SSW 4.9 mph 5.0 mph 62% 0.00 in 0.0 W/m2
04:49 58.5 °F 45.5 °F 29.86 in SSW 4.0 mph 5.0 mph 62% 0.00 in 0.0 W/m2
04:54 58.5 °F 45.5 °F 29.86 in Calm     62% 0.00 in 0.0 W/m2
05:04 58.5 °F 45.5 °F 29.86 in SSW 2.0 mph 4.0 mph 62% 0.00 in 0.0 W/m2
05:09 58.3 °F 45.3 °F 29.87 in Calm     62% 0.00 in 0.0 W/m2
05:19 57.9 °F 45.3 °F 29.86 in Calm     63% 0.00 in 0.0 W/m2
05:35 57.6 °F 45.1 °F 29.87 in Calm     63% 0.00 in 0.0 W/m2
05:40 57.4 °F 45.0 °F 29.87 in Calm     63% 0.00 in 0.0 W/m2
05:45 57.2 °F 44.8 °F 29.87 in Calm     63% 0.00 in 0.0 W/m2
05:50 56.8 °F 43.9 °F 29.87 in Calm     62% 0.00 in 0.0 W/m2
05:55 56.7 °F 45.0 °F 29.88 in Calm     65% 0.00 in 0.0 W/m2
06:05 56.7 °F 44.6 °F 29.88 in SSW 4.0 mph 5.0 mph 64% 0.00 in 7.0 W/m2
06:10 56.8 °F 44.8 °F 29.88 in SSW 2.0 mph 4.0 mph 64% 0.00 in 11.0 W/m2
06:15 57.0 °F 44.6 °F 29.88 in Calm   3.0 mph 63% 0.00 in 14.0 W/m2
06:23 57.0 °F 45.0 °F 29.88 in SSW 4.0 mph 5.0 mph 64% 0.00 in 18.0 W/m2
06:31 58.3 °F 45.7 °F 29.89 in Calm     63% 0.00 in 42.0 W/m2
06:52 60.1 °F 45.7 °F 29.89 in Calm     59% 0.00 in 90.0 W/m2
07:07 61.3 °F 46.0 °F 29.90 in Calm     57% 0.00 in 151.0 W/m2
07:41 64.6 °F 45.5 °F 29.90 in SSW 4.9 mph 6.0 mph 50% 0.00 in 294.0 W/m2
07:51 65.7 °F 45.0 °F 29.90 in SSW 4.0 mph 5.0 mph 47% 0.00 in 330.0 W/m2
07:58 66.9 °F 44.2 °F 29.91 in SSW 0.9 mph 5.0 mph 44% 0.00 in 367.0 W/m2
12:19 84.9 °F 26.6 °F 29.88 in Calm     12% 0.00 in 1005.0 W/m2
12:25 84.7 °F 24.4 °F 29.88 in Calm     11% 0.00 in 1009.0 W/m2
12:30 84.9 °F 22.3 °F 29.88 in Calm   2.0 mph 10% 0.00 in 1011.0 W/m2
12:36 84.9 °F 22.3 °F 29.88 in ESE 4.0 mph 4.0 mph 10% 0.00 in 1013.0 W/m2
12:49 85.5 °F 22.6 °F 29.87 in Calm     10% 0.00 in 1013.0 W/m2
12:54 86.2 °F 25.5 °F 29.87 in Calm     11% 0.00 in 1014.0 W/m2
13:04 86.5 °F 18.3 °F 29.86 in Calm     8% 0.00 in 1013.0 W/m2
13:35 88.5 °F 25.0 °F 29.85 in Calm     10% 0.00 in 995.0 W/m2
13:41 88.5 °F 25.0 °F 29.85 in Calm     10% 0.00 in 995.0 W/m2
14:06 89.2 °F 13.6 °F 29.84 in Calm   1.0 mph 6% 0.00 in 974.0 W/m2
14:12 89.2 °F 13.6 °F 29.84 in Calm   1.0 mph 6% 0.00 in 974.0 W/m2
14:37 89.1 °F 17.1 °F 29.83 in Calm   2.0 mph 7% 0.00 in 932.0 W/m2
14:53 90.0 °F 14.2 °F 29.83 in ESE 0.9 mph 1.0 mph 6% 0.00 in 905.0 W/m2
15:02 90.1 °F 14.2 °F 29.82 in Calm     6% 0.00 in 874.0 W/m2
15:25 91.2 °F 10.9 °F 29.82 in ESE 8.9 mph 10.0 mph 5% 0.00 in 838.0 W/m2
15:46 90.3 °F 14.4 °F 29.81 in Calm     6% 0.00 in 786.0 W/m2
15:57 91.0 °F 18.5 °F 29.80 in SE 2.0 mph 2.0 mph 7% 0.00 in 729.0 W/m2
16:06 91.0 °F 18.5 °F 29.80 in SE 2.0 mph 2.0 mph 7% 0.00 in 729.0 W/m2
16:18 92.5 °F 19.6 °F 29.80 in Calm   2.0 mph 7% 0.00 in 666.0 W/m2
16:46 91.6 °F 18.9 °F 29.79 in Calm     7% 0.00 in 598.0 W/m2
16:53 91.4 °F 21.9 °F 29.79 in Calm   2.0 mph 8% 0.00 in 550.0 W/m2
17:27 91.9 °F 22.3 °F 29.77 in SSE 4.0 mph 10.0 mph 8% 0.00 in 450.0 W/m2
17:54 91.6 °F 18.9 °F 29.76 in SSE 2.9 mph 9.0 mph 7% 0.00 in 364.0 W/m2
18:04 91.8 °F 19.0 °F 29.77 in South 10.1 mph 11.0 mph 7% 0.00 in 309.0 W/m2
18:19 91.8 °F 15.4 °F 29.77 in SSW 10.1 mph 12.0 mph 6% 0.00 in 255.0 W/m2
18:49 90.7 °F 14.7 °F 29.77 in South 2.0 mph 11.0 mph 6% 0.00 in 128.0 W/m2
19:10 90.3 °F 14.4 °F 29.77 in South 6.0 mph 8.0 mph 6% 0.00 in 76.0 W/m2
19:20 90.0 °F 14.2 °F 29.78 in South 6.0 mph 11.0 mph 6% 0.00 in 16.0 W/m2
19:48 88.5 °F 13.1 °F 29.78 in South 6.9 mph 10.0 mph 6% 0.00 in 5.0 W/m2
20:00 88.0 °F 12.7 °F 29.78 in South 6.0 mph 7.0 mph 6% 0.00 in 0.0 W/m2
20:11 87.3 °F 12.2 °F 29.78 in South 4.9 mph 7.0 mph 6% 0.00 in 0.0 W/m2
20:25 86.5 °F 11.7 °F 29.79 in South 4.9 mph 5.0 mph 6% 0.00 in 0.0 W/m2
20:30 86.4 °F 23.4 °F 29.80 in South 8.9 mph 12.0 mph 10% 0.00 in 0.0 W/m2
20:50 85.6 °F 25.2 °F 29.80 in South 10.1 mph 13.0 mph 11% 0.00 in 0.0 W/m2
20:59 85.3 °F 24.8 °F 29.80 in South 8.9 mph 12.0 mph 11% 0.00 in 0.0 W/m2
21:11 84.9 °F 24.6 °F 29.81 in South 10.1 mph 12.0 mph 11% 0.00 in 0.0 W/m2
21:31 83.8 °F 25.9 °F 29.81 in South 8.1 mph 12.0 mph 12% 0.00 in 0.0 W/m2
22:01 81.9 °F 24.3 °F 29.82 in South 4.0 mph 5.0 mph 12% 0.00 in 0.0 W/m2
22:36 82.6 °F 18.0 °F 29.84 in SSE 8.1 mph 9.0 mph 9% 0.00 in 0.0 W/m2
22:47 82.0 °F 17.6 °F 29.84 in SSE 6.0 mph 8.0 mph 9% 0.00 in 0.0 W/m2
23:02 81.3 °F 19.6 °F 29.84 in SSE 4.9 mph 7.0 mph 10% 0.00 in 0.0 W/m2
23:17 80.8 °F 19.2 °F 29.84 in SSE 6.0 mph 8.0 mph 10% 0.00 in 0.0 W/m2
23:31 80.2 °F 18.7 °F 29.85 in SSE 6.9 mph 9.0 mph 10% 0.00 in 0.0 W/m2
23:37 79.9 °F 20.7 °F 29.84 in SSE 6.0 mph 9.0 mph 11% 0.00 in 0.0 W/m2
23:52 79.7 °F 20.5 °F 29.84 in SSE 12.1 mph 12.1 mph 11% 0.00 in 0.0 W/m2
Canyon Roadhouse, Fishriver Canyon, Namibia
Compliments of Weather Underground - 2.25 mb